Aeroporto :
LOGIN :

Iscrizione | Disclaimer

   EN    FR    IT 

 










Sommario :    VFR   VFR Marginale   IFR   IFR Intensivo   IFR Molto Intensivo
Visibilità : 
Base nubi : 
>= 8 km
>= 3000ft
5 / 8 km
1000 / 3000 ft
1500m / 5 km
500 / 1000 ft
800 / 1500m
200 / 500 ft
< 800m
< 200 ft
Simboli :   Temporali  Nebbia  Neve Forte  Precipitazioni Forti  Vento > 20 kt
SIGMETs :   Varie  Temporali  Ghiacco  Turbolenza  Onda orograficha  Ceneri Vulcaniche






- Altitudine del aeroporto : 154 ft
- Codice IATA : SZZ


EPSC - Szczecin Goleniow

ULTIMO METAR :
  • 222030Z 11011KT 9999 BKN010 06/04 Q1013

METARs OBSOLETI :
  • 222000Z 11009KT 9999 BKN010 06/05 Q1013
  • 221930Z 12011KT 9999 BKN010 06/05 Q1013
  • 221900Z 11011KT 9999 FEW010 06/05 Q1013
  • 221830Z 11011KT 9999 FEW010 06/05 Q1013

TAF AMD TAF EPSC
Valido dal 22 a 20 ore il 23 a 18 ore UTC


222039Z 2220/2318 10011KT 9999 BKN012
PROB40
TEMPO 2221/2308 4500 BR OVC007
BECMG 2309/2312 SCT040



MetMap, La meteo Aeronautica in un colpo d'occhio ! - Copyright ORBIFLY Dicembre 2007 - Disclaimer

ORBIFLY MET'MAP TEAM :

Programmazione e sviluppo : Alexandra Zaïnal
Concezione e sviluppo : Baudouin d'Aumeries
Co-Programmazione e sviluppo : Marc-Olivier Méhu
Supporto tecnico e logistico : Manuel Goepfert
Aiuto per la traduzione : Arnaldo La Scala

Contatto : metmap@orbifly.com




FONTI E CREDITI :

   NOAA